Time;durP1;ratioP1;P1;durP2;ratioP2;P2;SDS_P1;SDS_P2;PMS_P1;PMS_P2;Temp;Humidity;BMP_temperature;BMP_pressure;BME280_temperature;BME280_humidity;BME280_pressure;Samples;Min_cycle;Max_cycle;Signal;HPM_P1;HPM_P2
2022/12/08 00:01:17;;;;;;;25.15;11.55;;;;;;;3.81;86.35;99595.28;4978801;28;20065;-89
2022/12/08 00:03:44;;;;;;;26.48;11.80;;;;;;;3.80;86.29;99597.06;4983930;28;20069;-90
2022/12/08 00:09:23;;;;;;;33.60;14.38;;;;;;;3.74;85.87;99588.72;4945395;28;20417;-90
2022/12/08 00:11:55;;;;;;;28.33;13.43;;;;;;;3.72;86.19;99591.47;4959004;28;20120;-90
2022/12/08 00:14:36;;;;;;;24.47;11.23;;;;;;;3.72;85.90;99585.38;4945281;28;20047;-90
2022/12/08 00:17:05;;;;;;;27.45;11.90;;;;;;;3.72;86.54;99583.59;4993997;28;20097;-90
2022/12/08 00:19:32;;;;;;;23.48;12.23;;;;;;;3.73;86.46;99582.66;4946460;28;20051;-90
2022/12/08 00:21:59;;;;;;;31.48;12.10;;;;;;;3.75;86.13;99575.50;4930227;28;20051;-90
2022/12/08 00:24:30;;;;;;;26.92;11.98;;;;;;;3.72;86.06;99577.50;4941049;28;20102;-89
2022/12/08 00:26:57;;;;;;;25.50;13.38;;;;;;;3.69;86.75;99578.56;4930891;28;20051;-90
2022/12/08 00:29:24;;;;;;;25.33;12.43;;;;;;;3.70;86.73;99574.97;4944490;28;20372;-89
2022/12/08 00:31:50;;;;;;;29.35;13.65;;;;;;;3.72;86.70;99573.09;4962363;28;20045;-89
2022/12/08 00:34:17;;;;;;;23.13;11.75;;;;;;;3.67;86.91;99573.38;4949720;28;20047;-89
2022/12/08 00:36:44;;;;;;;24.42;12.50;;;;;;;3.68;86.56;99566.34;4985914;28;20359;-89
2022/12/08 00:39:12;;;;;;;24.73;11.40;;;;;;;3.69;86.75;99560.16;4936858;28;20047;-89
2022/12/08 00:44:24;;;;;;;21.80;10.77;;;;;;;3.63;86.74;99553.50;4945714;28;20054;-89
2022/12/08 00:46:51;;;;;;;24.50;12.98;;;;;;;3.68;86.73;99561.94;4948646;28;20043;-89
2022/12/08 00:49:18;;;;;;;23.55;11.93;;;;;;;3.67;86.80;99557.63;4996194;28;20047;-89
2022/12/08 00:51:45;;;;;;;26.88;11.65;;;;;;;3.71;86.74;99560.88;4976781;28;20053;-89
2022/12/08 00:54:12;;;;;;;24.45;11.27;;;;;;;3.76;86.70;99565.84;4949496;28;20058;-88
2022/12/08 00:56:38;;;;;;;26.02;11.43;;;;;;;3.78;86.67;99561.34;4951383;28;20105;-89
2022/12/08 00:59:06;;;;;;;28.20;12.10;;;;;;;3.78;87.16;99556.09;4965773;28;20045;-89
2022/12/08 01:01:34;;;;;;;26.08;13.00;;;;;;;3.77;87.35;99557.88;4969773;28;20062;-88
2022/12/08 01:04:03;;;;;;;24.00;11.98;;;;;;;3.83;86.81;99554.00;4982246;28;20050;-89
2022/12/08 01:06:30;;;;;;;23.63;11.95;;;;;;;3.82;86.89;99554.97;4966951;28;20133;-90
2022/12/08 01:08:57;;;;;;;24.10;12.32;;;;;;;3.78;87.32;99558.72;4966786;28;20068;-89
2022/12/08 01:11:23;;;;;;;24.08;12.18;;;;;;;3.85;86.78;99545.09;4961815;28;20049;-90
2022/12/08 01:13:50;;;;;;;27.23;12.63;;;;;;;3.85;86.49;99545.09;4948721;28;20046;-89
2022/12/08 01:16:22;;;;;;;28.13;13.13;;;;;;;3.85;85.90;99555.59;4999275;28;20088;-89
2022/12/08 01:18:48;;;;;;;25.77;11.65;;;;;;;3.85;86.14;99550.34;4963150;28;20055;-90
2022/12/08 01:21:16;;;;;;;24.80;10.85;;;;;;;3.88;86.33;99542.25;4950902;28;20572;-90
2022/12/08 01:23:43;;;;;;;22.35;10.93;;;;;;;3.92;86.08;99540.28;4981800;28;20492;-90
2022/12/08 01:26:11;;;;;;;23.80;11.20;;;;;;;3.85;86.22;99544.25;4936119;28;20051;-90
2022/12/08 01:28:39;;;;;;;22.55;10.98;;;;;;;3.83;86.39;99552.22;4981272;28;20129;-90
2022/12/08 01:31:11;;;;;;;19.95;10.20;;;;;;;3.79;86.25;99563.03;4950639;28;20486;-90
2022/12/08 01:33:38;;;;;;;23.85;11.07;;;;;;;3.78;86.79;99550.84;4954029;28;20048;-90
2022/12/08 01:36:06;;;;;;;19.95;10.40;;;;;;;3.79;86.78;99560.38;4962093;28;20494;-89
2022/12/08 01:38:33;;;;;;;24.67;11.82;;;;;;;3.79;86.32;99557.75;4978764;28;20070;-90
2022/12/08 01:40:59;;;;;;;22.30;11.20;;;;;;;3.83;86.34;99551.38;4994092;28;20053;-90
2022/12/08 01:43:48;;;;;;;20.00;10.57;;;;;;;3.72;86.24;99556.50;4947657;28;20537;-89
2022/12/08 01:46:15;;;;;;;23.50;11.43;;;;;;;3.73;86.56;99555.53;4942813;28;20437;-90
2022/12/08 01:48:41;;;;;;;21.55;11.55;;;;;;;3.74;86.54;99544.97;4932202;28;20043;-90
2022/12/08 01:51:08;;;;;;;23.50;11.85;;;;;;;3.69;86.75;99549.66;4931855;28;20524;-88
2022/12/08 01:53:35;;;;;;;23.73;11.07;;;;;;;3.67;86.54;99552.38;4930932;28;20053;-90
2022/12/08 01:56:06;;;;;;;20.48;10.18;;;;;;;3.66;86.21;99545.47;4957675;28;20125;-90
2022/12/08 01:58:40;;;;;;;21.33;10.57;;;;;;;3.66;86.26;99548.09;4917660;28;20586;-90
2022/12/08 02:01:07;;;;;;;23.13;10.90;;;;;;;3.69;86.21;99539.16;4909884;28;20499;-89
2022/12/08 02:03:43;;;;;;;24.73;11.05;;;;;;;3.68;85.57;99537.47;4920763;28;20047;-89
2022/12/08 02:06:10;;;;;;;24.73;11.38;;;;;;;3.66;86.15;99529.69;4931500;28;20047;-90
2022/12/08 02:08:38;;;;;;;20.63;10.88;;;;;;;3.68;86.36;99517.28;4933568;28;20439;-89
2022/12/08 02:11:08;;;;;;;23.92;11.15;;;;;;;3.78;85.60;99524.56;4917069;28;20048;-90
2022/12/08 02:13:35;;;;;;;23.75;10.80;;;;;;;3.74;85.47;99523.09;4897899;28;20122;-90
2022/12/08 02:16:20;;;;;;;22.52;10.13;;;;;;;3.65;85.12;99512.25;4914761;28;20043;-89
2022/12/08 02:19:09;;;;;;;20.80;10.07;;;;;;;3.68;85.64;99506.78;4899200;28;20055;-89
2022/12/08 02:22:06;;;;;;;20.92;9.80;;;;;;;3.54;85.83;99514.75;4940731;28;20818;-89
2022/12/08 02:24:58;;;;;;;21.88;10.43;;;;;;;3.50;85.40;99508.00;4946524;28;20051;-89
2022/12/08 02:27:53;;;;;;;19.70;10.05;;;;;;;3.47;85.84;99510.81;4894060;28;20047;-89
2022/12/08 02:30:23;;;;;;;19.55;9.85;;;;;;;3.48;86.03;99507.25;4949209;28;20097;-89
2022/12/08 02:33:07;;;;;;;19.63;9.00;;;;;;;3.49;86.17;99514.19;4968883;28;20479;-90
2022/12/08 02:35:34;;;;;;;18.17;9.80;;;;;;;3.50;85.80;99508.00;4994929;28;20509;-89
2022/12/08 02:38:06;;;;;;;27.60;10.98;;;;;;;3.39;85.59;99505.22;4956096;28;20049;-89
2022/12/08 02:40:57;;;;;;;19.77;9.65;;;;;;;3.28;85.80;99497.19;4999656;28;20564;-89
2022/12/08 02:44:05;;;;;;;20.75;9.88;;;;;;;3.33;85.34;99498.56;4980796;28;20049;-89
2022/12/08 02:46:37;;;;;;;21.48;10.20;;;;;;;3.30;85.55;99490.06;4927579;28;20220;-89
2022/12/08 02:49:05;;;;;;;21.90;10.45;;;;;;;3.33;85.73;99489.84;4960313;28;20058;-89
2022/12/08 02:51:31;;;;;;;20.88;10.65;;;;;;;3.25;85.42;99493.81;4978890;28;20401;-90
2022/12/08 02:53:59;;;;;;;17.08;8.82;;;;;;;3.28;85.41;99495.38;4984611;28;20055;-90
2022/12/08 02:56:51;;;;;;;22.83;10.27;;;;;;;3.12;85.46;99498.16;4983408;28;20042;-90
2022/12/08 02:59:44;;;;;;;23.63;10.32;;;;;;;3.21;85.66;99488.88;4966450;28;20121;-90
2022/12/08 03:02:29;;;;;;;20.00;10.27;;;;;;;3.15;85.66;99484.84;4961283;28;20517;-89
2022/12/08 03:05:06;;;;;;;22.50;10.73;;;;;;;3.23;85.64;99479.97;4947723;28;20046;-90
2022/12/08 03:07:38;;;;;;;20.42;9.95;;;;;;;3.28;85.84;99481.44;4932117;28;20141;-90
2022/12/08 03:10:09;;;;;;;23.25;9.70;;;;;;;3.22;85.53;99478.25;4941429;28;20050;-90
2022/12/08 03:13:12;;;;;;;18.08;9.20;;;;;;;3.13;85.98;99471.00;4950488;28;20038;-90
2022/12/08 03:15:40;;;;;;;17.58;8.82;;;;;;;3.29;85.64;99472.63;4924046;28;20045;-90
2022/12/08 03:18:10;;;;;;;19.00;9.77;;;;;;;3.28;85.85;99473.56;4955576;28;20050;-90
2022/12/08 03:20:37;;;;;;;19.70;9.63;;;;;;;3.25;86.27;99472.81;5016347;28;20065;-90
2022/12/08 03:23:07;;;;;;;17.42;9.13;;;;;;;3.33;85.92;99481.97;4965579;28;20050;-90
2022/12/08 03:25:38;;;;;;;18.63;9.88;;;;;;;3.30;86.14;99472.53;4993702;28;20472;-89
2022/12/08 03:28:05;;;;;;;19.98;9.68;;;;;;;3.29;86.00;99468.22;4965558;28;20054;-90
2022/12/08 03:30:36;;;;;;;18.58;8.73;;;;;;;3.22;86.43;99473.00;4962831;28;20043;-90
2022/12/08 03:33:06;;;;;;;18.65;9.13;;;;;;;3.27;86.40;99470.09;4965646;28;20517;-89
2022/12/08 03:35:34;;;;;;;14.90;8.43;;;;;;;3.24;86.49;99468.50;4951941;28;20394;-90
2022/12/08 03:38:10;;;;;;;19.10;8.20;;;;;;;3.30;86.09;99462.03;4978726;28;20045;-90
2022/12/08 03:40:37;;;;;;;16.02;7.47;;;;;;;3.32;86.51;99464.56;4949039;28;20053;-89
2022/12/08 03:43:04;;;;;;;19.13;8.93;;;;;;;3.25;86.75;99464.94;4952967;28;20482;-90
2022/12/08 03:45:30;;;;;;;18.27;9.02;;;;;;;3.28;86.93;99457.81;4961388;28;20406;-89
2022/12/08 03:47:59;;;;;;;18.58;9.10;;;;;;;3.33;86.59;99453.09;4980243;28;20096;-90
2022/12/08 03:50:26;;;;;;;23.25;9.10;;;;;;;3.32;86.34;99447.03;4951836;28;20397;-88
2022/12/08 03:52:53;;;;;;;16.52;8.23;;;;;;;3.29;86.45;99441.97;4963763;28;20042;-89
2022/12/08 03:55:20;;;;;;;17.40;8.25;;;;;;;3.32;86.36;99440.94;4981890;28;20043;-89
2022/12/08 03:57:47;;;;;;;17.80;8.13;;;;;;;3.32;86.12;99447.03;4983485;28;20043;-89
2022/12/08 04:00:14;;;;;;;16.58;8.32;;;;;;;3.24;86.21;99446.69;4967450;28;20517;-89
2022/12/08 04:02:41;;;;;;;20.25;8.07;;;;;;;3.30;86.53;99440.19;4985128;28;20405;-89
2022/12/08 04:05:08;;;;;;;19.42;9.35;;;;;;;3.29;87.24;99435.91;4932917;28;20054;-90
2022/12/08 04:07:35;;;;;;;20.65;8.90;;;;;;;3.30;86.86;99434.94;4942539;28;20049;-90
2022/12/08 04:10:03;;;;;;;21.45;10.18;;;;;;;3.28;86.79;99429.78;4936071;28;20062;-89
2022/12/08 04:12:30;;;;;;;20.42;9.70;;;;;;;3.29;86.99;99431.50;4933895;28;20071;-90
2022/12/08 04:14:56;;;;;;;20.98;10.38;;;;;;;3.24;nan;99423.91;4942252;28;20513;-89
2022/12/08 04:17:23;;;;;;;17.67;8.43;;;;;;;3.29;86.78;99426.25;4945137;28;20046;-90
2022/12/08 04:19:50;;;;;;;20.65;9.63;;;;;;;3.31;86.87;99423.50;4961575;28;20047;-90
2022/12/08 04:22:17;;;;;;;21.38;9.82;;;;;;;3.24;87.49;99423.06;4932040;28;20051;-90
2022/12/08 04:24:44;;;;;;;18.73;10.38;;;;;;;3.20;87.07;99414.53;4913584;28;20046;-89
2022/12/08 04:27:10;;;;;;;21.30;11.23;;;;;;;3.16;87.83;99420.09;4939923;28;20399;-90
2022/12/08 04:29:37;;;;;;;28.65;14.52;;;;;;;3.21;87.37;99418.88;4934212;28;20045;-89
2022/12/08 04:32:04;;;;;;;26.83;14.85;;;;;;;3.25;87.19;99424.75;4946929;28;20329;-89
2022/12/08 04:34:31;;;;;;;28.70;14.68;;;;;;;3.16;87.52;99415.69;4918395;28;20126;-90
2022/12/08 04:36:58;;;;;;;33.17;15.15;;;;;;;3.15;87.10;99413.16;4945808;28;20414;-89
2022/12/08 04:39:24;;;;;;;29.10;13.40;;;;;;;3.14;87.42;99414.13;4926168;28;20057;-90
2022/12/08 04:41:51;;;;;;;25.38;12.02;;;;;;;3.16;87.67;99414.88;4926680;28;20051;-89
2022/12/08 04:44:18;;;;;;;21.63;12.25;;;;;;;3.18;87.33;99411.19;4946832;28;20058;-89
2022/12/08 04:46:45;;;;;;;21.27;10.77;;;;;;;3.16;87.53;99407.00;4931674;28;20050;-90
2022/12/08 04:49:12;;;;;;;19.90;9.68;;;;;;;3.15;87.34;99411.38;4935363;28;20053;-90
2022/12/08 04:51:38;;;;;;;22.38;9.90;;;;;;;3.14;87.63;99406.25;4960081;28;20125;-90
2022/12/08 04:54:05;;;;;;;20.13;10.27;;;;;;;3.13;87.80;99409.78;4966124;28;20125;-90
2022/12/08 04:56:32;;;;;;;16.95;9.05;;;;;;;3.13;87.75;99408.03;4939341;28;20061;-90
2022/12/08 04:58:59;;;;;;;20.45;9.75;;;;;;;3.17;87.63;99411.28;4950554;28;20122;-89
2022/12/08 05:01:25;;;;;;;19.23;9.13;;;;;;;3.22;87.09;99414.44;4966093;28;20449;-89
2022/12/08 05:03:52;;;;;;;17.27;8.77;;;;;;;3.15;87.90;99410.53;4950295;28;20137;-90
2022/12/08 05:06:19;;;;;;;20.45;9.35;;;;;;;3.13;88.02;99408.03;4954236;28;20050;-90
2022/12/08 05:08:46;;;;;;;23.70;11.38;;;;;;;3.19;87.72;99407.63;4952611;28;20034;-90
2022/12/08 05:11:13;;;;;;;23.85;12.50;;;;;;;3.23;87.04;99401.25;4936616;28;20047;-89
2022/12/08 05:13:40;;;;;;;32.63;13.05;;;;;;;3.25;86.45;99403.75;4968175;28;20129;-90
2022/12/08 05:16:09;;;;;;;27.38;12.55;;;;;;;3.18;87.40;99416.44;4949161;28;20122;-89
2022/12/08 05:18:37;;;;;;;25.58;12.10;;;;;;;3.20;87.69;99411.91;4935138;28;20054;-89
2022/12/08 05:21:04;;;;;;;23.60;10.82;;;;;;;3.20;87.57;99406.66;4954966;28;20042;-93
2022/12/08 05:23:31;;;;;;;23.35;11.60;;;;;;;3.17;87.74;99406.88;4963270;28;20050;-91
2022/12/08 05:26:01;;;;;;;27.27;11.77;;;;;;;3.21;87.97;99408.38;4963640;28;20073;-89
2022/12/08 05:28:28;;;;;;;21.75;10.88;;;;;;;3.17;88.10;99409.50;4997836;28;20046;-91
2022/12/08 05:31:12;;;;;;;23.75;12.68;;;;;;;3.17;88.48;99395.53;4934963;28;20053;-88
2022/12/08 05:33:39;;;;;;;26.00;13.23;;;;;;;3.20;87.80;99401.41;4932005;28;20050;-89
2022/12/08 05:36:06;;;;;;;25.17;12.57;;;;;;;3.20;88.11;99398.78;4967686;28;20043;-88
2022/12/08 05:38:33;;;;;;;20.67;10.45;;;;;;;3.20;88.37;99408.47;4934750;28;20121;-88
2022/12/08 05:41:00;;;;;;;21.05;10.70;;;;;;;3.25;88.07;99406.38;4953877;28;20060;-88
2022/12/08 05:43:26;;;;;;;22.83;10.50;;;;;;;3.22;88.09;99402.16;4968449;28;20502;-89
2022/12/08 05:45:53;;;;;;;21.00;9.48;;;;;;;3.23;88.19;99401.25;4963555;28;20051;-89
2022/12/08 05:48:20;;;;;;;20.27;10.35;;;;;;;3.22;88.54;99399.53;4965626;28;20559;-89
2022/12/08 05:50:47;;;;;;;20.85;10.30;;;;;;;3.18;88.72;99397.22;4950951;28;20517;-89
2022/12/08 05:53:15;;;;;;;20.13;10.88;;;;;;;3.27;88.57;99396.63;4965950;28;20053;-89
2022/12/08 05:55:42;;;;;;;19.13;9.07;;;;;;;3.28;88.32;99393.03;4957539;28;20406;-89
2022/12/08 05:58:13;;;;;;;21.63;10.23;;;;;;;3.22;88.29;99388.22;4919440;28;20051;-89
2022/12/08 06:00:40;;;;;;;18.98;10.00;;;;;;;3.33;88.06;99395.38;4931940;28;20497;-89
2022/12/08 06:03:07;;;;;;;23.38;11.18;;;;;;;3.28;88.09;99392.22;4985249;28;20057;-89
2022/12/08 06:05:34;;;;;;;23.98;11.52;;;;;;;3.29;88.25;99405.25;5003736;28;20404;-88
2022/12/08 06:08:01;;;;;;;21.65;12.15;;;;;;;3.28;88.71;99393.03;4972662;28;20062;-89
2022/12/08 06:10:28;;;;;;;21.45;11.75;;;;;;;3.28;88.48;99386.97;4981420;28;20065;-89
2022/12/08 06:12:55;;;;;;;19.13;10.85;;;;;;;3.26;88.88;99394.97;4986095;28;20062;-89
2022/12/08 06:15:22;;;;;;;19.25;9.50;;;;;;;3.26;89.26;99397.59;4949273;28;20046;-89
2022/12/08 06:17:49;;;;;;;19.92;9.85;;;;;;;3.25;89.19;99388.84;4974839;28;20387;-89
2022/12/08 06:20:16;;;;;;;17.92;9.50;;;;;;;3.28;89.00;99392.22;4976573;28;20050;-89
2022/12/08 06:22:42;;;;;;;20.70;10.43;;;;;;;3.25;88.48;99385.38;4970107;28;20100;-89
2022/12/08 06:25:09;;;;;;;21.42;10.80;;;;;;;3.24;89.06;99394.22;4970343;28;20068;-88
2022/12/08 06:27:36;;;;;;;21.77;10.07;;;;;;;3.27;88.70;99396.63;4947629;28;20514;-89
2022/12/08 06:30:03;;;;;;;16.60;8.32;;;;;;;3.22;88.91;99396.91;4993589;28;20054;-89
2022/12/08 06:32:30;;;;;;;17.10;8.65;;;;;;;3.29;88.55;99394.75;4937767;28;20417;-90
2022/12/08 06:34:57;;;;;;;15.68;7.90;;;;;;;3.25;89.02;99391.47;4983671;28;20121;-88
2022/12/08 06:37:24;;;;;;;19.20;9.73;;;;;;;3.28;88.86;99393.03;4978881;28;20105;-89
2022/12/08 06:39:51;;;;;;;15.98;8.48;;;;;;;3.26;88.83;99393.16;4968116;28;20082;-88
2022/12/08 06:45:03;;;;;;;20.10;10.05;;;;;;;3.27;88.89;99386.13;4987234;28;20606;-89
2022/12/08 06:47:30;;;;;;;22.75;10.68;;;;;;;3.19;89.27;99391.88;4970207;28;20536;-88
2022/12/08 06:49:57;;;;;;;23.13;9.95;;;;;;;3.26;89.46;99389.72;4968240;28;20414;-89
2022/12/08 06:52:24;;;;;;;20.27;10.18;;;;;;;3.25;89.41;99391.47;4966927;28;20049;-89
2022/12/08 06:54:50;;;;;;;24.17;10.82;;;;;;;3.26;89.08;99397.59;5000216;28;20105;-89
2022/12/08 06:57:17;;;;;;;21.27;10.38;;;;;;;3.22;89.51;99393.47;4952797;28;20490;-88
2022/12/08 06:59:44;;;;;;;22.60;10.38;;;;;;;3.25;88.95;99396.72;4968489;28;20108;-89
2022/12/08 07:02:11;;;;;;;20.58;9.82;;;;;;;3.22;89.32;99394.28;4970921;28;20046;-89
2022/12/08 07:04:38;;;;;;;20.70;9.38;;;;;;;3.21;89.33;99395.25;4948159;28;20442;-89
2022/12/08 07:07:04;;;;;;;26.38;10.18;;;;;;;3.21;89.86;99397.88;4950296;28;20058;-89
2022/12/08 07:09:31;;;;;;;23.58;10.45;;;;;;;3.22;89.72;99401.34;4932177;28;20057;-89
2022/12/08 07:11:58;;;;;;;24.00;10.38;;;;;;;3.21;89.90;99402.28;4948384;28;20406;-88
2022/12/08 07:14:25;;;;;;;25.98;11.98;;;;;;;3.25;89.08;99401.13;4953904;28;20384;-89
2022/12/08 07:16:51;;;;;;;22.10;9.65;;;;;;;3.23;89.47;99406.50;4958106;28;20372;-88
2022/12/08 07:19:18;;;;;;;19.75;7.97;;;;;;;3.30;89.09;99413.94;4932513;28;20042;-89
2022/12/08 07:21:45;;;;;;;17.15;8.57;;;;;;;3.26;89.51;99410.69;4949997;28;20046;-90
2022/12/08 07:24:12;;;;;;;18.95;8.80;;;;;;;3.28;88.97;99410.59;4965246;28;20553;-89
2022/12/08 07:26:39;;;;;;;18.45;9.60;;;;;;;3.24;89.08;99416.03;4965095;28;20042;-88
2022/12/08 07:29:06;;;;;;;18.08;8.38;;;;;;;3.23;89.33;99408.25;4969005;28;20495;-89
2022/12/08 07:31:33;;;;;;;16.85;7.95;;;;;;;3.25;89.32;99409.00;4993696;28;20447;-89
2022/12/08 07:34:00;;;;;;;19.80;9.82;;;;;;;3.31;89.26;99413.00;4971506;28;20151;-89
2022/12/08 07:36:27;;;;;;;19.20;8.98;;;;;;;3.26;89.36;99413.31;5000997;28;20030;-88
2022/12/08 07:38:53;;;;;;;18.85;8.90;;;;;;;3.27;89.43;99409.75;4966940;28;20689;-88
2022/12/08 07:41:22;;;;;;;23.88;9.90;;;;;;;3.24;89.60;99404.72;4966398;28;20042;-89
2022/12/08 07:43:49;;;;;;;19.55;9.23;;;;;;;3.27;89.13;99401.88;4983134;28;20051;-83
2022/12/08 07:46:19;;;;;;;24.95;10.52;;;;;;;3.30;88.97;99401.66;4957890;28;20635;-88
2022/12/08 07:48:46;;;;;;;16.95;8.95;;;;;;;3.32;89.30;99405.03;4967712;28;20093;-88
2022/12/08 07:51:14;;;;;;;19.10;9.30;;;;;;;3.30;89.38;99406.91;4969930;28;20038;-88
2022/12/08 07:53:42;;;;;;;26.83;11.02;;;;;;;3.26;89.69;99395.78;4950846;28;20453;-88
2022/12/08 07:56:15;;;;;;;20.70;10.07;;;;;;;3.26;89.59;99400.19;4980723;28;20402;-89
2022/12/08 07:58:44;;;;;;;26.15;10.80;;;;;;;3.29;89.87;99400.00;4966759;28;20081;-87
2022/12/08 08:01:25;;;;;;;24.00;11.70;;;;;;;3.23;89.84;99398.63;4950261;28;24628;-86
2022/12/08 08:03:54;;;;;;;22.88;12.02;;;;;;;3.33;89.84;99398.00;4963191;28;20102;-86
2022/12/08 08:06:21;;;;;;;25.42;12.05;;;;;;;3.31;90.23;99397.25;4972403;28;20086;-87
2022/12/08 08:08:48;;;;;;;23.25;11.23;;;;;;;3.31;90.43;99392.88;4930573;28;20065;-88
2022/12/08 08:11:15;;;;;;;25.15;11.32;;;;;;;3.34;90.55;99391.84;4953817;28;20043;-88
2022/12/08 08:13:48;;;;;;;22.43;10.87;;;;;;;3.35;90.29;99393.50;4945631;28;20047;-88
2022/12/08 08:16:15;;;;;;;25.45;11.70;;;;;;;3.38;90.65;99391.50;4966648;28;20051;-88
2022/12/08 08:18:42;;;;;;;31.83;12.63;;;;;;;3.39;90.94;99393.19;4944728;28;20038;-88
2022/12/08 08:21:09;;;;;;;30.95;13.40;;;;;;;3.45;90.98;99386.69;4976870;28;20042;-88
2022/12/08 08:23:56;;;;;;;29.55;13.43;;;;;;;3.48;90.84;99391.75;4934309;28;20051;-87
2022/12/08 08:26:22;;;;;;;26.27;12.55;;;;;;;3.52;90.44;99393.22;4945842;28;20402;-88
2022/12/08 08:28:49;;;;;;;23.77;11.57;;;;;;;3.53;90.71;99386.19;4947215;28;20047;-88
2022/12/08 08:31:16;;;;;;;24.67;11.50;;;;;;;3.53;90.86;99392.28;5008546;28;20107;-87
2022/12/08 08:33:42;;;;;;;23.15;11.40;;;;;;;3.56;90.60;99401.72;4970176;28;20072;-88
2022/12/08 08:36:10;;;;;;;24.75;10.90;;;;;;;3.61;90.14;99392.63;4995479;28;20390;-89
2022/12/08 08:38:41;;;;;;;25.30;10.75;;;;;;;3.59;89.47;99397.13;4962576;28;20141;-84
2022/12/08 08:41:09;;;;;;;23.02;10.73;;;;;;;3.51;89.56;99398.56;4951349;28;20112;-89
2022/12/08 08:43:36;;;;;;;23.63;10.80;;;;;;;3.57;89.57;99395.56;4974815;28;20046;-88
2022/12/08 08:46:05;;;;;;;24.48;11.20;;;;;;;3.54;90.06;99401.03;4966729;28;20491;-88
2022/12/08 08:48:32;;;;;;;25.13;11.30;;;;;;;3.51;90.01;99401.19;4972735;28;20082;-88
2022/12/08 08:51:06;;;;;;;25.70;11.80;;;;;;;3.52;90.44;99393.22;4960543;28;20051;-87
2022/12/08 08:53:33;;;;;;;27.30;10.57;;;;;;;3.58;90.05;99391.97;4969032;28;20502;-88
2022/12/08 08:56:00;;;;;;;28.65;12.00;;;;;;;3.61;90.00;99389.13;4980816;28;20061;-88
2022/12/08 08:58:28;;;;;;;24.58;10.75;;;;;;;3.64;89.92;99386.34;4964764;28;20477;-88
2022/12/08 09:00:55;;;;;;;24.33;11.15;;;;;;;3.64;90.04;99389.78;4964598;28;20046;-88
2022/12/08 09:03:22;;;;;;;26.40;10.52;;;;;;;3.67;90.06;99384.34;4953183;28;20062;-88
2022/12/08 09:05:49;;;;;;;19.23;9.60;;;;;;;3.67;90.58;99386.13;4973548;28;20407;-88
2022/12/08 09:08:16;;;;;;;20.70;9.80;;;;;;;3.68;90.10;99388.63;4963824;28;20114;-88
2022/12/08 09:10:43;;;;;;;28.42;10.30;;;;;;;3.67;90.30;99386.97;4958152;28;20125;-88
2022/12/08 09:13:09;;;;;;;27.73;12.32;;;;;;;3.69;90.62;99382.44;4933189;28;20050;-88
2022/12/08 09:15:36;;;;;;;25.38;10.48;;;;;;;3.72;90.44;99389.28;4966951;28;20054;-88
2022/12/08 09:18:05;;;;;;;23.77;11.55;;;;;;;3.74;90.50;99395.28;4982063;28;20633;-88
2022/12/08 09:20:33;;;;;;;25.42;11.35;;;;;;;3.77;90.37;99386.34;4964890;28;20050;-87
2022/12/08 09:23:00;;;;;;;24.35;11.20;;;;;;;3.80;90.31;99383.50;4948826;28;20062;-89
2022/12/08 09:25:27;;;;;;;25.27;10.55;;;;;;;3.80;90.41;99381.72;4931935;28;20050;-88
2022/12/08 09:27:54;;;;;;;24.35;11.18;;;;;;;3.80;90.30;99381.72;4918332;28;20050;-88
2022/12/08 09:30:21;;;;;;;23.02;11.25;;;;;;;3.80;90.11;99376.47;4964090;28;20050;-87
2022/12/08 09:32:47;;;;;;;25.33;10.68;;;;;;;3.82;90.26;99371.13;4953642;28;20047;-89
2022/12/08 09:35:14;;;;;;;32.10;14.50;;;;;;;3.81;90.28;99380.75;4934888;28;20371;-89
2022/12/08 09:37:41;;;;;;;28.17;12.63;;;;;;;3.83;90.01;99378.03;4950787;28;20120;-88
2022/12/08 09:40:10;;;;;;;29.27;12.70;;;;;;;3.81;90.33;99375.50;4964196;28;20042;-88
2022/12/08 09:42:41;;;;;;;24.70;11.20;;;;;;;3.83;90.06;99371.00;4949249;28;20042;-88
2022/12/08 09:45:12;;;;;;;23.63;10.70;;;;;;;3.82;90.17;99369.31;4980448;28;20066;-88
2022/12/08 09:47:41;;;;;;;20.88;10.95;;;;;;;3.85;89.89;99366.50;4948812;28;20068;-88
2022/12/08 09:50:17;;;;;;;22.70;10.50;;;;;;;3.86;89.69;99362.06;4981851;28;20038;-88
2022/12/08 09:52:48;;;;;;;24.92;10.88;;;;;;;3.89;89.77;99362.72;4980572;28;20096;-88
2022/12/08 09:55:28;;;;;;;25.67;11.40;;;;;;;3.85;90.33;99357.78;4979121;28;20048;-87
2022/12/08 09:58:01;;;;;;;24.75;11.52;;;;;;;3.89;89.76;99359.22;4928603;28;20067;-88
2022/12/08 10:00:27;;;;;;;26.08;12.48;;;;;;;3.91;90.38;99357.34;4992205;28;20073;-87
2022/12/08 10:02:56;;;;;;;24.92;10.95;;;;;;;3.94;89.89;99354.50;4999412;28;20414;-88
2022/12/08 10:05:24;;;;;;;21.35;10.65;;;;;;;3.95;89.86;99348.31;4965146;28;20046;-88
2022/12/08 10:08:18;;;;;;;22.02;11.10;;;;;;;3.94;90.01;99343.16;4978516;28;20046;-87
2022/12/08 10:10:59;;;;;;;22.08;10.55;;;;;;;3.95;90.16;99339.59;4962206;28;20070;-88
2022/12/08 10:13:55;;;;;;;23.85;10.48;;;;;;;3.94;90.07;99327.41;4947772;28;20053;-88
2022/12/08 10:16:28;;;;;;;20.42;9.95;;;;;;;4.01;89.69;99326.03;4911878;28;20048;-88
2022/12/08 10:19:17;;;;;;;26.42;10.93;;;;;;;3.98;90.08;99324.47;4962706;28;20159;-88
2022/12/08 10:21:44;;;;;;;27.88;11.27;;;;;;;4.04;89.38;99324.00;4941330;28;20383;-87
2022/12/08 10:24:33;;;;;;;24.73;11.10;;;;;;;4.02;89.71;99317.19;4967725;28;20055;-86
2022/12/08 10:27:00;;;;;;;24.13;10.73;;;;;;;4.08;89.63;99309.72;4935019;28;20054;-87
2022/12/08 10:29:27;;;;;;;22.67;11.18;;;;;;;4.11;89.52;99309.50;4972046;28;20042;-88
2022/12/08 10:31:56;;;;;;;24.58;11.00;;;;;;;4.12;89.28;99307.72;4982015;28;20062;-88
2022/12/08 10:34:23;;;;;;;24.75;11.77;;;;;;;4.15;89.42;99310.16;4964941;28;20074;-87
2022/12/08 10:36:53;;;;;;;27.40;12.48;;;;;;;4.18;89.10;99303.84;4982418;28;20125;-88
2022/12/08 10:39:42;;;;;;;23.10;10.35;;;;;;;4.12;88.71;99311.22;4970444;28;20038;-89
2022/12/08 10:42:18;;;;;;;29.40;12.13;;;;;;;4.15;88.52;99310.16;4913369;28;20043;-89
2022/12/08 10:44:56;;;;;;;25.98;11.75;;;;;;;4.14;88.36;99301.41;4922608;28;20502;-89
2022/12/08 10:47:25;;;;;;;23.85;11.45;;;;;;;4.18;88.52;99303.84;4974040;28;20054;-88
2022/12/08 10:50:09;;;;;;;26.70;11.43;;;;;;;4.14;88.06;99292.69;4983677;28;21102;-88
2022/12/08 10:52:39;;;;;;;26.48;11.73;;;;;;;4.18;88.00;99291.53;4951835;28;20446;-88
2022/12/08 10:55:17;;;;;;;20.80;11.07;;;;;;;4.17;87.89;99296.88;4978793;28;20058;-89
2022/12/08 10:57:44;;;;;;;22.95;11.18;;;;;;;4.21;88.03;99290.47;4949727;28;20085;-88
2022/12/08 11:00:13;;;;;;;25.42;11.02;;;;;;;4.22;87.60;99282.47;4950034;28;20046;-87
2022/12/08 11:03:01;;;;;;;22.00;11.15;;;;;;;4.19;87.10;99289.75;4964767;28;20050;-87
2022/12/08 11:05:32;;;;;;;24.25;10.77;;;;;;;4.22;87.49;99269.31;4947862;28;20050;-88
2022/12/08 11:07:58;;;;;;;18.67;9.05;;;;;;;4.24;87.46;99285.00;4948233;28;20461;-88
2022/12/08 11:10:41;;;;;;;19.90;9.13;;;;;;;4.22;87.04;99277.22;4973837;28;20047;-88
2022/12/08 11:13:24;;;;;;;19.15;8.57;;;;;;;4.24;86.86;99272.69;4980242;28;20047;-88
2022/12/08 11:15:53;;;;;;;17.77;8.70;;;;;;;4.29;86.89;99272.38;4935795;28;20038;-87
2022/12/08 11:18:39;;;;;;;18.60;9.38;;;;;;;4.25;86.46;99260.38;4954162;28;20401;-89
2022/12/08 11:21:11;;;;;;;18.65;9.25;;;;;;;4.31;86.68;99258.16;4932421;28;20074;-87
2022/12/08 11:23:40;;;;;;;19.13;8.65;;;;;;;4.33;86.21;99245.75;4982465;28;20047;-90
2022/12/08 11:26:26;;;;;;;17.63;9.25;;;;;;;4.29;85.40;99241.66;4980365;28;20065;-88
2022/12/08 11:28:53;;;;;;;23.75;9.50;;;;;;;4.33;85.63;99239.69;4969616;28;20054;-88
2022/12/08 11:31:31;;;;;;;17.90;8.88;;;;;;;4.36;85.36;99244.69;4963770;28;20453;-87
2022/12/08 11:33:57;;;;;;;17.13;7.90;;;;;;;4.38;85.43;99245.44;4932780;28;20051;-87
2022/12/08 11:36:26;;;;;;;17.88;8.95;;;;;;;4.41;85.69;99239.13;4984517;28;20034;-89
2022/12/08 11:38:56;;;;;;;19.52;10.70;;;;;;;4.43;85.27;99232.81;5000132;28;20367;-89
2022/12/08 11:41:26;;;;;;;20.48;9.38;;;;;;;4.47;85.41;99236.88;4933478;28;20054;-89
2022/12/08 11:44:30;;;;;;;17.25;7.63;;;;;;;4.47;84.47;99241.28;4972858;28;20438;-88
2022/12/08 11:47:38;;;;;;;20.25;8.95;;;;;;;4.49;84.38;99234.97;4971797;28;20383;-88
2022/12/08 11:50:19;;;;;;;19.52;9.75;;;;;;;4.48;83.42;99233.31;4958856;28;20050;-88